createdAt,value
2022-08-23T00:00:54.322Z,1003.74
2022-08-23T00:03:27.480Z,1003.74
2022-08-23T00:06:00.399Z,1003.73
2022-08-23T00:08:33.391Z,1003.73
2022-08-23T00:11:06.418Z,1003.73
2022-08-23T00:13:47.828Z,1003.73
2022-08-23T00:16:12.431Z,1003.72
2022-08-23T00:18:49.257Z,1003.70
2022-08-23T00:21:18.384Z,1003.68
2022-08-23T00:23:51.351Z,1003.65
2022-08-23T00:26:24.347Z,1003.62
2022-08-23T00:28:57.505Z,1003.60
2022-08-23T00:31:30.417Z,1003.59
2022-08-23T00:34:03.438Z,1003.58
2022-08-23T00:36:36.357Z,1003.59
2022-08-23T00:39:09.497Z,1003.61
2022-08-23T00:41:42.446Z,1003.61
2022-08-23T00:44:15.479Z,1003.61
2022-08-23T00:46:48.522Z,1003.62
2022-08-23T00:49:21.421Z,1003.61
2022-08-23T00:51:54.456Z,1003.62
2022-08-23T00:54:27.402Z,1003.62
2022-08-23T00:57:00.511Z,1003.63
2022-08-23T00:59:33.528Z,1003.64
2022-08-23T01:02:06.638Z,1003.66
2022-08-23T01:04:39.402Z,1003.71
2022-08-23T01:07:12.504Z,1003.75
2022-08-23T01:09:45.477Z,1003.78
2022-08-23T01:12:19.186Z,1003.79
2022-08-23T01:14:51.499Z,1003.80
2022-08-23T01:17:24.437Z,1003.80
2022-08-23T01:19:57.510Z,1003.81
2022-08-23T01:22:30.541Z,1003.83
2022-08-23T01:25:08.542Z,1003.84
2022-08-23T01:27:36.474Z,1003.85
2022-08-23T01:30:09.445Z,1003.86
2022-08-23T01:32:42.545Z,1003.85
2022-08-23T01:35:15.535Z,1003.86
2022-08-23T01:37:48.536Z,1003.86
2022-08-23T01:40:21.524Z,1003.87
2022-08-23T01:42:54.504Z,1003.90
2022-08-23T01:45:27.547Z,1003.91
2022-08-23T01:48:00.603Z,1003.91
2022-08-23T01:53:09.589Z,1003.95
2022-08-23T01:55:42.537Z,1003.96
2022-08-23T01:58:15.510Z,1003.96
2022-08-23T02:00:48.533Z,1003.97
2022-08-23T02:03:21.602Z,1003.97
2022-08-23T02:05:54.634Z,1003.97
2022-08-23T02:08:27.499Z,1003.97
2022-08-23T02:11:00.584Z,1003.97
2022-08-23T02:13:33.646Z,1003.98
2022-08-23T02:16:06.601Z,1003.98
2022-08-23T02:18:39.608Z,1003.99
2022-08-23T02:21:12.565Z,1004.00
2022-08-23T02:23:45.650Z,1004.02
2022-08-23T02:26:18.557Z,1004.03
2022-08-23T02:28:51.589Z,1004.03
2022-08-23T02:31:25.488Z,1004.04
2022-08-23T02:36:35.629Z,1004.07
2022-08-23T02:39:08.601Z,1004.08
2022-08-23T02:41:44.558Z,1004.10
2022-08-23T02:44:17.543Z,1004.12
2022-08-23T02:46:50.640Z,1004.15
2022-08-23T02:49:23.587Z,1004.16
2022-08-23T02:51:56.674Z,1004.17
2022-08-23T02:54:29.635Z,1004.19
2022-08-23T02:57:02.633Z,1004.21
2022-08-23T02:59:35.637Z,1004.22
2022-08-23T03:02:08.715Z,1004.22
2022-08-23T03:04:41.705Z,1004.23
2022-08-23T03:07:14.614Z,1004.23
2022-08-23T03:09:47.610Z,1004.21
2022-08-23T03:12:20.634Z,1004.22
2022-08-23T03:14:53.716Z,1004.21
2022-08-23T03:17:26.633Z,1004.23
2022-08-23T03:19:59.675Z,1004.25
2022-08-23T03:22:32.668Z,1004.25
2022-08-23T03:25:05.687Z,1004.27
2022-08-23T03:27:45.087Z,1004.29
2022-08-23T03:30:15.518Z,1004.31
2022-08-23T03:32:49.285Z,1004.33
2022-08-23T03:35:17.626Z,1004.34
2022-08-23T03:37:55.056Z,1004.34
2022-08-23T03:40:23.777Z,1004.35
2022-08-23T03:42:56.702Z,1004.35
2022-08-23T03:45:29.707Z,1004.36
2022-08-23T03:48:02.695Z,1004.36
2022-08-23T03:50:35.686Z,1004.37
2022-08-23T03:53:09.016Z,1004.38
2022-08-23T03:55:42.686Z,1004.40
2022-08-23T03:58:14.555Z,1004.43
2022-08-23T04:00:47.655Z,1004.45
2022-08-23T04:03:20.660Z,1004.47
2022-08-23T04:05:53.753Z,1004.49
2022-08-23T04:08:33.610Z,1004.52
2022-08-23T04:10:59.517Z,1004.54
2022-08-23T04:13:32.757Z,1004.58
2022-08-23T04:16:05.760Z,1004.60
2022-08-23T04:18:38.495Z,1004.62
2022-08-23T04:21:11.555Z,1004.64
2022-08-23T04:23:44.522Z,1004.66
2022-08-23T04:26:17.472Z,1004.69
2022-08-23T04:28:50.521Z,1004.71
2022-08-23T04:31:23.743Z,1004.72
2022-08-23T04:33:56.434Z,1004.74
2022-08-23T04:36:29.591Z,1004.77
2022-08-23T04:39:02.758Z,1004.81
2022-08-23T04:41:35.817Z,1004.84
2022-08-23T04:44:08.803Z,1004.85
2022-08-23T04:46:41.778Z,1004.86
2022-08-23T04:51:52.943Z,1004.92
2022-08-23T04:54:22.544Z,1004.93
2022-08-23T04:56:54.823Z,1004.94
2022-08-23T04:59:27.870Z,1004.95
2022-08-23T05:02:00.841Z,1004.97
2022-08-23T05:04:33.824Z,1004.98
2022-08-23T05:07:06.815Z,1005.03
2022-08-23T05:09:39.895Z,1005.06
2022-08-23T05:12:12.961Z,1005.08
2022-08-23T05:14:47.946Z,1005.10
2022-08-23T05:17:19.778Z,1005.10
2022-08-23T05:19:52.650Z,1005.13
2022-08-23T05:22:25.781Z,1005.16
2022-08-23T05:24:58.873Z,1005.17
2022-08-23T05:27:31.771Z,1005.20
2022-08-23T05:30:04.911Z,1005.22
2022-08-23T05:32:37.873Z,1005.25
2022-08-23T05:35:10.905Z,1005.30
2022-08-23T05:37:43.888Z,1005.33
2022-08-23T05:40:16.756Z,1005.35
2022-08-23T05:42:49.905Z,1005.38
2022-08-23T05:45:22.528Z,1005.41
2022-08-23T05:47:55.934Z,1005.44
2022-08-23T05:50:28.877Z,1005.48
2022-08-23T05:53:01.827Z,1005.51
2022-08-23T05:55:35.254Z,1005.54
2022-08-23T05:58:07.920Z,1005.56
2022-08-23T06:00:41.086Z,1005.57
2022-08-23T06:03:13.915Z,1005.58
2022-08-23T06:05:46.670Z,1005.59
2022-08-23T06:08:19.550Z,1005.62
2022-08-23T06:10:52.713Z,1005.66
2022-08-23T06:13:25.643Z,1005.69
2022-08-23T06:15:58.790Z,1005.72
2022-08-23T06:18:31.596Z,1005.74
2022-08-23T06:21:04.626Z,1005.77
2022-08-23T06:23:38.091Z,1005.80
2022-08-23T06:26:11.958Z,1005.81
2022-08-23T06:28:50.229Z,1005.83
2022-08-23T06:31:17.940Z,1005.84
2022-08-23T06:33:51.012Z,1005.85
2022-08-23T06:36:23.866Z,1005.87
2022-08-23T06:38:56.804Z,1005.87
2022-08-23T06:41:29.749Z,1005.88
2022-08-23T06:44:02.635Z,1005.91
2022-08-23T06:46:35.802Z,1005.93
2022-08-23T06:49:08.616Z,1005.95
2022-08-23T06:51:41.769Z,1005.98
2022-08-23T06:54:14.809Z,1005.98
2022-08-23T06:56:47.786Z,1005.98
2022-08-23T06:59:20.653Z,1005.99
2022-08-23T07:01:54.135Z,1006.00
2022-08-23T07:04:26.770Z,1006.02
2022-08-23T07:07:00.007Z,1006.02
2022-08-23T07:09:32.802Z,1006.04
2022-08-23T07:12:05.709Z,1006.05
2022-08-23T07:14:38.780Z,1006.04
2022-08-23T07:17:12.009Z,1006.04
2022-08-23T07:19:46.014Z,1006.05
2022-08-23T07:22:18.719Z,1006.06
2022-08-23T07:24:51.745Z,1006.07
2022-08-23T07:27:24.848Z,1006.07
2022-08-23T07:29:58.055Z,1006.06
2022-08-23T07:32:30.992Z,1006.07
2022-08-23T07:35:04.034Z,1006.09
2022-08-23T07:37:37.034Z,1006.10
2022-08-23T07:40:09.886Z,1006.12
2022-08-23T07:42:42.871Z,1006.13
2022-08-23T07:45:15.965Z,1006.13
2022-08-23T07:48:06.844Z,1006.13
2022-08-23T07:50:22.009Z,1006.15
2022-08-23T07:52:55.073Z,1006.16
2022-08-23T07:55:27.915Z,1006.16
2022-08-23T07:58:01.235Z,1006.16
2022-08-23T08:00:33.714Z,1006.17
2022-08-23T08:03:06.990Z,1006.18
2022-08-23T08:05:39.803Z,1006.19
2022-08-23T08:08:13.914Z,1006.21
2022-08-23T08:10:47.029Z,1006.22
2022-08-23T08:13:20.362Z,1006.23
2022-08-23T08:15:53.138Z,1006.24
2022-08-23T08:18:26.153Z,1006.27
2022-08-23T08:20:59.038Z,1006.29
2022-08-23T08:23:31.797Z,1006.31
2022-08-23T08:26:05.497Z,1006.32
2022-08-23T08:28:37.946Z,1006.33
2022-08-23T08:31:11.131Z,1006.35
2022-08-23T08:33:43.943Z,1006.36
2022-08-23T08:36:16.768Z,1006.37
2022-08-23T08:38:51.155Z,1006.39
2022-08-23T08:41:22.805Z,1006.39
2022-08-23T08:43:55.964Z,1006.40
2022-08-23T08:46:29.096Z,1006.41
2022-08-23T08:49:01.807Z,1006.41
2022-08-23T08:51:35.228Z,1006.41
2022-08-23T08:54:07.806Z,1006.42
2022-08-23T08:56:43.689Z,1006.42
2022-08-23T08:59:17.068Z,1006.42
2022-08-23T09:01:49.836Z,1006.42
2022-08-23T09:04:22.802Z,1006.42
2022-08-23T09:06:55.835Z,1006.41
2022-08-23T09:09:28.912Z,1006.41
2022-08-23T09:12:01.838Z,1006.39
2022-08-23T09:14:34.876Z,1006.40
2022-08-23T09:17:08.203Z,1006.38
2022-08-23T09:19:41.098Z,1006.39
2022-08-23T09:22:13.955Z,1006.38
2022-08-23T09:24:47.009Z,1006.38
2022-08-23T09:27:20.137Z,1006.37
2022-08-23T09:29:53.208Z,1006.37
2022-08-23T09:32:25.906Z,1006.37
2022-08-23T09:34:59.149Z,1006.38
2022-08-23T09:37:31.916Z,1006.38
2022-08-23T09:40:05.059Z,1006.37
2022-08-23T09:42:37.887Z,1006.36
2022-08-23T09:45:10.872Z,1006.34
2022-08-23T09:47:44.788Z,1006.31
2022-08-23T09:50:16.991Z,1006.29
2022-08-23T09:52:53.143Z,1006.29
2022-08-23T09:55:26.037Z,1006.27
2022-08-23T09:57:59.268Z,1006.25
2022-08-23T10:00:31.876Z,1006.23
2022-08-23T10:03:05.059Z,1006.23
2022-08-23T10:05:37.999Z,1006.20
2022-08-23T10:08:11.127Z,1006.18
2022-08-23T10:10:43.930Z,1006.16
2022-08-23T10:13:17.002Z,1006.14
2022-08-23T10:15:50.113Z,1006.12
2022-08-23T10:18:23.035Z,1006.09
2022-08-23T10:20:56.081Z,1006.08
2022-08-23T10:23:29.015Z,1006.05
2022-08-23T10:26:02.092Z,1006.04
2022-08-23T10:28:35.737Z,1006.02
2022-08-23T10:31:08.072Z,1006.00
2022-08-23T10:33:41.096Z,1005.98
2022-08-23T10:36:14.124Z,1005.96
2022-08-23T10:38:47.133Z,1005.95
2022-08-23T10:41:19.971Z,1005.94
2022-08-23T10:43:52.963Z,1005.93
2022-08-23T10:46:25.995Z,1005.93
2022-08-23T10:48:59.097Z,1005.93
2022-08-23T10:51:32.370Z,1005.93
2022-08-23T10:54:04.962Z,1005.94
2022-08-23T10:56:40.480Z,1005.91
2022-08-23T10:59:11.098Z,1005.90
2022-08-23T11:01:44.185Z,1005.88
2022-08-23T11:04:17.009Z,1005.88
2022-08-23T11:06:50.115Z,1005.85
2022-08-23T11:09:25.830Z,1005.83
2022-08-23T11:11:56.060Z,1005.81
2022-08-23T11:14:29.335Z,1005.79
2022-08-23T11:17:02.173Z,1005.77
2022-08-23T11:19:35.336Z,1005.75
2022-08-23T11:22:08.010Z,1005.73
2022-08-23T11:24:41.179Z,1005.72
2022-08-23T11:27:14.383Z,1005.70
2022-08-23T11:29:47.358Z,1005.67
2022-08-23T11:32:20.348Z,1005.65
2022-08-23T11:34:53.132Z,1005.63
2022-08-23T11:37:26.223Z,1005.59
2022-08-23T11:39:59.218Z,1005.57
2022-08-23T11:42:32.266Z,1005.58
2022-08-23T11:45:05.345Z,1005.58
2022-08-23T11:47:40.956Z,1005.58
2022-08-23T11:50:14.163Z,1005.57
2022-08-23T11:52:47.148Z,1005.56
2022-08-23T11:55:20.060Z,1005.56
2022-08-23T11:57:53.181Z,1005.54
2022-08-23T12:00:29.348Z,1005.53
2022-08-23T12:02:59.401Z,1005.52
2022-08-23T12:05:32.206Z,1005.51
2022-08-23T12:08:05.498Z,1005.50
2022-08-23T12:10:38.237Z,1005.49
2022-08-23T12:13:11.176Z,1005.47
2022-08-23T12:15:44.201Z,1005.47
2022-08-23T12:18:22.004Z,1005.47
2022-08-23T12:20:50.156Z,1005.44
2022-08-23T12:23:23.150Z,1005.40
2022-08-23T12:25:56.098Z,1005.38
2022-08-23T12:28:29.103Z,1005.37
2022-08-23T12:31:07.912Z,1005.36
2022-08-23T12:33:35.104Z,1005.33
2022-08-23T12:36:12.442Z,1005.31
2022-08-23T12:38:41.315Z,1005.32
2022-08-23T12:41:14.131Z,1005.31
2022-08-23T12:43:47.299Z,1005.29
2022-08-23T12:46:20.217Z,1005.28
2022-08-23T12:48:53.441Z,1005.27
2022-08-23T12:51:26.154Z,1005.26
2022-08-23T12:53:59.160Z,1005.24
2022-08-23T12:56:32.604Z,1005.24
2022-08-23T12:59:05.468Z,1005.24
2022-08-23T13:01:38.702Z,1005.22
2022-08-23T13:04:11.296Z,1005.22
2022-08-23T13:06:44.414Z,1005.19
2022-08-23T13:09:17.185Z,1005.17
2022-08-23T13:11:50.514Z,1005.14
2022-08-23T13:14:23.200Z,1005.12
2022-08-23T13:16:56.291Z,1005.14
2022-08-23T13:19:29.308Z,1005.12
2022-08-23T13:22:02.264Z,1005.10
2022-08-23T13:24:38.585Z,1005.09
2022-08-23T13:27:22.259Z,1005.06
2022-08-23T13:30:09.075Z,1005.03
2022-08-23T13:32:42.194Z,1005.02
2022-08-23T13:35:15.186Z,1004.99
2022-08-23T13:37:48.330Z,1004.99
2022-08-23T13:40:21.257Z,1004.98
2022-08-23T13:42:54.369Z,1004.96
2022-08-23T13:45:27.534Z,1004.94
2022-08-23T13:48:00.291Z,1004.90
2022-08-23T13:50:34.535Z,1004.89
2022-08-23T13:53:15.221Z,1004.87
2022-08-23T13:55:39.401Z,1004.86
2022-08-23T13:58:12.541Z,1004.86
2022-08-23T14:00:46.958Z,1004.86
2022-08-23T14:03:18.222Z,1004.85
2022-08-23T14:05:51.287Z,1004.85
2022-08-23T14:08:24.238Z,1004.84
2022-08-23T14:10:57.270Z,1004.83
2022-08-23T14:13:30.585Z,1004.81
2022-08-23T14:18:36.595Z,1004.79
2022-08-23T14:21:09.725Z,1004.78
2022-08-23T14:23:43.588Z,1004.79
2022-08-23T14:26:16.278Z,1004.76
2022-08-23T14:28:49.416Z,1004.76
2022-08-23T14:31:22.294Z,1004.75
2022-08-23T14:34:00.017Z,1004.75
2022-08-23T14:36:29.914Z,1004.74
2022-08-23T14:39:01.375Z,1004.73
2022-08-23T14:41:34.442Z,1004.74
2022-08-23T14:44:07.428Z,1004.74
2022-08-23T14:46:40.305Z,1004.76
2022-08-23T14:49:13.451Z,1004.77
2022-08-23T14:51:46.364Z,1004.77
2022-08-23T14:54:19.581Z,1004.76
2022-08-23T14:56:53.348Z,1004.73
2022-08-23T14:59:25.393Z,1004.72
2022-08-23T15:01:58.682Z,1004.72
2022-08-23T15:04:34.374Z,1004.72
2022-08-23T15:07:17.654Z,1004.72
2022-08-23T15:09:38.329Z,1004.73
2022-08-23T15:12:57.324Z,1004.72
2022-08-23T15:14:43.615Z,1004.71
2022-08-23T15:17:16.346Z,1004.69
2022-08-23T15:19:49.352Z,1004.67
2022-08-23T15:22:22.347Z,1004.66
2022-08-23T15:24:55.708Z,1004.65
2022-08-23T15:27:42.262Z,1004.66
2022-08-23T15:30:15.348Z,1004.66
2022-08-23T15:32:52.502Z,1004.64
2022-08-23T15:35:21.356Z,1004.61
2022-08-23T15:37:54.351Z,1004.60
2022-08-23T15:40:27.721Z,1004.61
2022-08-23T15:43:01.007Z,1004.60
2022-08-23T15:45:33.755Z,1004.59
2022-08-23T15:48:06.775Z,1004.59
2022-08-23T15:50:39.542Z,1004.56
2022-08-23T15:53:12.502Z,1004.54
2022-08-23T15:55:45.745Z,1004.52
2022-08-23T15:58:18.425Z,1004.51
2022-08-23T16:00:51.441Z,1004.51
2022-08-23T16:03:24.854Z,1004.51
2022-08-23T16:05:57.559Z,1004.51
2022-08-23T16:08:30.700Z,1004.51
2022-08-23T16:11:03.773Z,1004.50
2022-08-23T16:13:36.603Z,1004.50
2022-08-23T16:16:09.536Z,1004.50
2022-08-23T16:18:42.574Z,1004.50
2022-08-23T16:21:15.445Z,1004.50
2022-08-23T16:23:48.461Z,1004.50
2022-08-23T16:26:21.595Z,1004.50
2022-08-23T16:28:54.450Z,1004.49
2022-08-23T16:31:38.283Z,1004.49
2022-08-23T16:34:00.546Z,1004.49
2022-08-23T16:36:33.657Z,1004.49
2022-08-23T16:39:06.548Z,1004.50
2022-08-23T16:41:43.600Z,1004.50
2022-08-23T16:44:16.501Z,1004.51
2022-08-23T16:46:49.455Z,1004.51
2022-08-23T16:49:22.459Z,1004.52
2022-08-23T16:51:55.779Z,1004.53
2022-08-23T16:54:28.622Z,1004.54
2022-08-23T16:57:01.611Z,1004.55
2022-08-23T16:59:39.742Z,1004.56
2022-08-23T17:02:10.755Z,1004.56
2022-08-23T17:04:40.655Z,1004.57
2022-08-23T17:07:13.655Z,1004.58
2022-08-23T17:09:46.795Z,1004.59
2022-08-23T17:12:19.729Z,1004.59
2022-08-23T17:14:52.784Z,1004.60
2022-08-23T17:17:25.605Z,1004.60
2022-08-23T17:19:58.537Z,1004.60
2022-08-23T17:22:31.860Z,1004.59
2022-08-23T17:25:04.669Z,1004.60
2022-08-23T17:27:37.595Z,1004.59
2022-08-23T17:30:10.562Z,1004.60
2022-08-23T17:32:43.571Z,1004.61
2022-08-23T17:35:16.568Z,1004.63
2022-08-23T17:37:49.794Z,1004.63
2022-08-23T17:40:22.573Z,1004.65
2022-08-23T17:42:55.909Z,1004.66
2022-08-23T17:45:28.989Z,1004.68
2022-08-23T17:48:01.569Z,1004.69
2022-08-23T17:50:34.667Z,1004.71
2022-08-23T17:53:07.933Z,1004.73
2022-08-23T17:55:40.851Z,1004.75
2022-08-23T17:58:13.663Z,1004.76
2022-08-23T18:00:46.804Z,1004.78
2022-08-23T18:03:19.574Z,1004.81
2022-08-23T18:05:52.562Z,1004.81
2022-08-23T18:08:25.792Z,1004.84
2022-08-23T18:10:58.973Z,1004.85
2022-08-23T18:13:31.719Z,1004.89
2022-08-23T18:16:04.747Z,1004.90
2022-08-23T18:18:37.952Z,1004.92
2022-08-23T18:21:13.818Z,1004.94
2022-08-23T18:23:46.952Z,1004.97
2022-08-23T18:26:19.627Z,1005.00
2022-08-23T18:28:52.936Z,1005.03
2022-08-23T18:31:25.631Z,1005.04
2022-08-23T18:34:00.619Z,1005.07
2022-08-23T18:36:31.643Z,1005.09
2022-08-23T18:39:04.681Z,1005.12
2022-08-23T18:41:37.847Z,1005.15
2022-08-23T18:44:10.837Z,1005.17
2022-08-23T18:46:43.735Z,1005.20
2022-08-23T18:49:16.718Z,1005.21
2022-08-23T18:51:49.874Z,1005.24
2022-08-23T18:54:22.642Z,1005.26
2022-08-23T18:56:55.827Z,1005.28
2022-08-23T18:59:28.827Z,1005.30
2022-08-23T19:02:02.094Z,1005.33
2022-08-23T19:04:34.779Z,1005.37
2022-08-23T19:07:07.640Z,1005.39
2022-08-23T19:09:40.827Z,1005.42
2022-08-23T19:12:13.737Z,1005.44
2022-08-23T19:14:47.120Z,1005.48
2022-08-23T19:17:20.750Z,1005.51
2022-08-23T19:19:53.750Z,1005.54
2022-08-23T19:22:26.823Z,1005.57
2022-08-23T19:25:01.906Z,1005.59
2022-08-23T19:27:34.765Z,1005.61
2022-08-23T19:30:07.804Z,1005.63
2022-08-23T19:32:41.037Z,1005.65
2022-08-23T19:35:14.004Z,1005.67
2022-08-23T19:37:47.039Z,1005.70
2022-08-23T19:40:20.079Z,1005.73
2022-08-23T19:42:53.121Z,1005.73
2022-08-23T19:45:26.133Z,1005.75
2022-08-23T19:47:59.984Z,1005.76
2022-08-23T19:50:33.141Z,1005.77
2022-08-23T19:53:05.808Z,1005.78
2022-08-23T19:55:38.860Z,1005.78
2022-08-23T19:58:12.096Z,1005.80
2022-08-23T20:00:44.891Z,1005.83
2022-08-23T20:03:17.728Z,1005.85
2022-08-23T20:05:50.903Z,1005.85
2022-08-23T20:08:23.733Z,1005.86
2022-08-23T20:10:57.041Z,1005.87
2022-08-23T20:13:29.735Z,1005.89
2022-08-23T20:16:02.829Z,1005.91
2022-08-23T20:18:35.911Z,1005.93
2022-08-23T20:21:08.911Z,1005.95
2022-08-23T20:23:42.015Z,1005.95
2022-08-23T20:26:14.917Z,1005.97
2022-08-23T20:28:59.076Z,1005.98
2022-08-23T20:31:20.883Z,1006.00
2022-08-23T20:33:54.099Z,1006.03
2022-08-23T20:36:26.890Z,1006.04
2022-08-23T20:39:00.124Z,1006.05
2022-08-23T20:41:35.890Z,1006.04
2022-08-23T20:44:09.157Z,1006.04
2022-08-23T20:46:42.204Z,1006.05
2022-08-23T20:49:15.145Z,1006.04
2022-08-23T20:51:48.138Z,1006.04
2022-08-23T20:54:21.070Z,1006.04
2022-08-23T20:56:54.109Z,1006.04
2022-08-23T20:59:26.935Z,1006.04
2022-08-23T21:01:59.929Z,1006.08
2022-08-23T21:04:32.945Z,1006.09
2022-08-23T21:07:05.951Z,1006.10
2022-08-23T21:09:38.914Z,1006.12
2022-08-23T21:12:12.053Z,1006.13
2022-08-23T21:14:44.986Z,1006.13
2022-08-23T21:17:17.837Z,1006.15
2022-08-23T21:19:50.940Z,1006.17
2022-08-23T21:22:23.887Z,1006.19
2022-08-23T21:24:56.982Z,1006.21
2022-08-23T21:27:30.123Z,1006.22
2022-08-23T21:30:03.190Z,1006.24
2022-08-23T21:32:36.201Z,1006.25
2022-08-23T21:35:09.166Z,1006.27
2022-08-23T21:37:45.215Z,1006.28
2022-08-23T21:40:18.231Z,1006.30
2022-08-23T21:42:51.253Z,1006.31
2022-08-23T21:45:24.216Z,1006.32
2022-08-23T21:47:57.182Z,1006.34
2022-08-23T21:50:30.242Z,1006.35
2022-08-23T21:53:03.196Z,1006.37
2022-08-23T21:55:37.116Z,1006.37
2022-08-23T21:58:09.173Z,1006.39
2022-08-23T22:00:42.032Z,1006.39
2022-08-23T22:03:15.329Z,1006.37
2022-08-23T22:05:48.265Z,1006.35
2022-08-23T22:08:21.253Z,1006.34
2022-08-23T22:10:58.166Z,1006.35
2022-08-23T22:13:27.190Z,1006.33
2022-08-23T22:16:00.237Z,1006.34
2022-08-23T22:18:33.274Z,1006.32
2022-08-23T22:21:06.253Z,1006.31
2022-08-23T22:23:39.294Z,1006.31
2022-08-23T22:26:12.275Z,1006.30
2022-08-23T22:28:45.292Z,1006.30
2022-08-23T22:31:18.349Z,1006.30
2022-08-23T22:33:51.245Z,1006.31
2022-08-23T22:36:25.288Z,1006.29
2022-08-23T22:38:58.252Z,1006.30
2022-08-23T22:41:30.975Z,1006.30
2022-08-23T22:44:04.299Z,1006.29
2022-08-23T22:46:37.351Z,1006.28
2022-08-23T22:49:10.302Z,1006.28
2022-08-23T22:51:43.256Z,1006.29
2022-08-23T22:54:16.328Z,1006.28
2022-08-23T22:56:49.288Z,1006.29
2022-08-23T22:59:22.321Z,1006.30
2022-08-23T23:01:55.555Z,1006.28
2022-08-23T23:04:28.391Z,1006.27
2022-08-23T23:07:01.316Z,1006.28
2022-08-23T23:09:34.348Z,1006.27
2022-08-23T23:12:08.290Z,1006.28
2022-08-23T23:14:41.294Z,1006.29
2022-08-23T23:17:14.396Z,1006.31
2022-08-23T23:19:47.317Z,1006.33
2022-08-23T23:22:20.327Z,1006.35
2022-08-23T23:24:53.321Z,1006.37
2022-08-23T23:27:26.352Z,1006.37
2022-08-23T23:29:59.349Z,1006.38
2022-08-23T23:32:32.359Z,1006.38
2022-08-23T23:35:05.316Z,1006.38
2022-08-23T23:37:38.393Z,1006.39
2022-08-23T23:40:11.445Z,1006.40
2022-08-23T23:42:44.349Z,1006.41
2022-08-23T23:45:17.310Z,1006.41
2022-08-23T23:47:50.335Z,1006.41
2022-08-23T23:50:23.350Z,1006.41
2022-08-23T23:52:56.382Z,1006.42
2022-08-23T23:55:29.357Z,1006.44
2022-08-23T23:58:02.548Z,1006.48
